createdAt,value
2018-11-06T00:01:54.565Z,94803.75
2018-11-06T00:04:28.467Z,94800.19
2018-11-06T00:06:56.987Z,94809.21
2018-11-06T00:09:25.507Z,94808.84
2018-11-06T00:11:53.963Z,94818.58
2018-11-06T00:14:22.432Z,94808.13
2018-11-06T00:16:50.950Z,94807.11
2018-11-06T00:19:19.438Z,94813.05
2018-11-06T00:21:47.910Z,94807.81
2018-11-06T00:24:16.443Z,94804.91
2018-11-06T00:26:44.932Z,94807.30
2018-11-06T00:29:13.359Z,94798.36
2018-11-06T00:31:41.827Z,94804.77
2018-11-06T00:34:10.357Z,94804.93
2018-11-06T00:36:38.779Z,94800.97
2018-11-06T00:39:08.053Z,94806.20
2018-11-06T00:41:36.523Z,94805.32
2018-11-06T00:44:05.192Z,94804.52
2018-11-06T00:46:33.708Z,94805.77
2018-11-06T00:49:02.181Z,94813.20
2018-11-06T00:51:30.719Z,94815.39
2018-11-06T00:53:59.202Z,94805.09
2018-11-06T00:56:27.671Z,94812.17
2018-11-06T00:58:56.151Z,94806.12
2018-11-06T01:01:24.610Z,94812.72
2018-11-06T01:03:58.287Z,94807.07
2018-11-06T01:06:26.719Z,94801.61
2018-11-06T01:08:55.196Z,94804.47
2018-11-06T01:11:23.631Z,94809.67
2018-11-06T01:13:52.214Z,94799.38
2018-11-06T01:16:20.712Z,94800.23
2018-11-06T01:18:49.223Z,94799.67
2018-11-06T01:21:17.674Z,94787.89
2018-11-06T01:23:46.142Z,94790.52
2018-11-06T01:26:14.611Z,94789.03
2018-11-06T01:28:43.113Z,94793.89
2018-11-06T01:31:11.759Z,94784.23
2018-11-06T01:33:40.287Z,94784.17
2018-11-06T01:36:08.777Z,94787.25
2018-11-06T01:38:37.309Z,94776.64
2018-11-06T01:41:05.966Z,94781.56
2018-11-06T01:43:34.455Z,94779.50
2018-11-06T01:46:02.926Z,94783.22
2018-11-06T01:48:31.407Z,94783.50
2018-11-06T01:50:59.862Z,94782.02
2018-11-06T01:53:28.290Z,94781.50
2018-11-06T01:55:56.819Z,94772.73
2018-11-06T01:58:25.247Z,94774.01
2018-11-06T02:00:53.704Z,94779.34
2018-11-06T02:03:22.276Z,94774.70
2018-11-06T02:05:50.768Z,94769.66
2018-11-06T02:08:19.214Z,94779.28
2018-11-06T02:10:47.691Z,94772.30
2018-11-06T02:13:16.170Z,94768.16
2018-11-06T02:15:44.659Z,94771.41
2018-11-06T02:18:13.053Z,94770.30
2018-11-06T02:20:41.488Z,94762.64
2018-11-06T02:23:09.883Z,94769.02
2018-11-06T02:25:38.301Z,94776.48
2018-11-06T02:28:06.731Z,94775.62
2018-11-06T02:30:35.151Z,94766.92
2018-11-06T02:33:03.558Z,94767.66
2018-11-06T02:35:31.991Z,94770.42
2018-11-06T02:38:00.389Z,94768.36
2018-11-06T02:40:28.823Z,94770.61
2018-11-06T02:42:57.272Z,94768.64
2018-11-06T02:45:25.767Z,94769.44
2018-11-06T02:47:54.175Z,94776.00
2018-11-06T02:50:22.582Z,94770.19
2018-11-06T02:52:51.010Z,94771.42
2018-11-06T02:55:19.439Z,94771.62
2018-11-06T02:57:47.904Z,94775.54
2018-11-06T03:00:18.039Z,94774.44
2018-11-06T03:02:47.459Z,94778.98
2018-11-06T03:05:15.908Z,94774.32
2018-11-06T03:07:44.341Z,94776.57
2018-11-06T03:10:13.702Z,94776.33
2018-11-06T03:12:43.243Z,94774.44
2018-11-06T03:15:12.800Z,94770.30
2018-11-06T03:17:41.304Z,94777.95
2018-11-06T03:20:10.798Z,94773.66
2018-11-06T03:22:39.347Z,94776.66
2018-11-06T03:25:08.004Z,94775.70
2018-11-06T03:27:36.507Z,94775.23
2018-11-06T03:30:06.284Z,94777.83
2018-11-06T03:32:34.729Z,94771.52
2018-11-06T03:35:03.146Z,94777.56
2018-11-06T03:37:31.614Z,94779.06
2018-11-06T03:40:00.023Z,94771.48
2018-11-06T03:42:28.425Z,94773.22
2018-11-06T03:44:56.890Z,94771.28
2018-11-06T03:47:25.311Z,94774.08
2018-11-06T03:49:53.773Z,94775.31
2018-11-06T03:52:22.190Z,94772.87
2018-11-06T03:54:50.647Z,94777.00
2018-11-06T03:57:19.095Z,94775.23
2018-11-06T03:59:47.551Z,94770.98
2018-11-06T04:02:15.962Z,94774.56
2018-11-06T04:04:44.422Z,94780.08
2018-11-06T04:07:12.835Z,94781.42
2018-11-06T04:09:41.274Z,94780.19
2018-11-06T04:12:09.712Z,94782.99
2018-11-06T04:14:38.190Z,94776.73
2018-11-06T04:17:06.612Z,94772.95
2018-11-06T04:19:35.066Z,94768.41
2018-11-06T04:22:03.501Z,94767.75
2018-11-06T04:24:31.956Z,94770.42
2018-11-06T04:27:00.362Z,94767.03
2018-11-06T04:29:28.803Z,94769.88
2018-11-06T04:31:57.230Z,94770.06
2018-11-06T04:34:25.703Z,94761.63
2018-11-06T04:36:54.110Z,94757.93
2018-11-06T04:39:22.510Z,94756.98
2018-11-06T04:41:50.962Z,94748.55
2018-11-06T04:44:19.383Z,94750.95
2018-11-06T04:46:47.842Z,94755.80
2018-11-06T04:49:16.275Z,94749.30
2018-11-06T04:51:44.706Z,94746.27
2018-11-06T04:54:13.123Z,94746.66
2018-11-06T04:56:41.608Z,94743.06
2018-11-06T04:59:10.043Z,94743.86
2018-11-06T05:01:38.486Z,94751.63
2018-11-06T05:04:06.907Z,94749.27
2018-11-06T05:06:35.374Z,94749.20
2018-11-06T05:09:06.452Z,94752.05
2018-11-06T05:11:34.944Z,94745.05
2018-11-06T05:14:03.494Z,94746.47
2018-11-06T05:16:31.944Z,94754.88
2018-11-06T05:19:00.396Z,94750.13
2018-11-06T05:21:28.895Z,94753.77
2018-11-06T05:23:57.356Z,94759.56
2018-11-06T05:26:39.224Z,94760.97
2018-11-06T05:29:08.106Z,94764.61
2018-11-06T05:31:37.553Z,94748.89
2018-11-06T05:34:06.945Z,94753.89
2018-11-06T05:36:39.120Z,94751.33
2018-11-06T05:39:23.013Z,94765.48
2018-11-06T05:41:51.639Z,94760.91
2018-11-06T05:44:20.052Z,94769.02
2018-11-06T05:46:48.505Z,94766.27
2018-11-06T05:49:17.084Z,94764.25
2018-11-06T05:51:45.495Z,94773.02
2018-11-06T05:54:13.956Z,94768.95
2018-11-06T05:56:42.451Z,94762.13
2018-11-06T05:59:11.515Z,94763.50
2018-11-06T06:01:39.922Z,94767.30
2018-11-06T06:04:08.374Z,94765.80
2018-11-06T06:06:36.919Z,94763.05
2018-11-06T06:09:07.415Z,94776.23
2018-11-06T06:11:35.886Z,94778.79
2018-11-06T06:14:04.360Z,94769.49
2018-11-06T06:16:32.818Z,94768.45
2018-11-06T06:19:01.239Z,94777.41
2018-11-06T06:21:29.666Z,94781.88
2018-11-06T06:23:58.106Z,94781.51
2018-11-06T06:26:26.511Z,94785.77
2018-11-06T06:28:54.992Z,94783.56
2018-11-06T06:31:23.429Z,94786.37
2018-11-06T06:33:52.088Z,94789.27
2018-11-06T06:36:22.195Z,94784.71
2018-11-06T06:39:05.026Z,94789.92
2018-11-06T06:41:46.962Z,94789.73
2018-11-06T06:44:20.220Z,94786.14
2018-11-06T06:46:52.872Z,94794.58
2018-11-06T06:49:21.323Z,94792.84
2018-11-06T06:51:49.726Z,94789.06
2018-11-06T06:54:18.290Z,94789.47
2018-11-06T06:56:46.687Z,94789.73
2018-11-06T06:59:15.115Z,94788.95
2018-11-06T07:01:43.552Z,94790.52
2018-11-06T07:04:12.123Z,94779.92
2018-11-06T07:06:40.572Z,94780.23
2018-11-06T07:09:10.379Z,94776.84
2018-11-06T07:11:38.948Z,94772.63
2018-11-06T07:14:07.378Z,94772.43
2018-11-06T07:16:35.817Z,94767.81
2018-11-06T07:19:04.274Z,94774.32
2018-11-06T07:21:32.727Z,94773.38
2018-11-06T07:24:01.167Z,94782.64
2018-11-06T07:26:29.617Z,94783.66
2018-11-06T07:28:58.177Z,94782.41
2018-11-06T07:31:33.730Z,94779.67
2018-11-06T07:34:02.776Z,94775.75
2018-11-06T07:36:31.813Z,94776.83
2018-11-06T07:39:03.286Z,94774.80
2018-11-06T07:41:32.439Z,94780.42
2018-11-06T07:44:01.255Z,94779.98
2018-11-06T07:46:30.394Z,94769.48
2018-11-06T07:48:59.533Z,94765.79
2018-11-06T07:51:31.365Z,94767.14
2018-11-06T07:54:06.591Z,94769.78
2018-11-06T12:42:02.254Z,94588.20
2018-11-06T12:44:30.882Z,94581.24
2018-11-06T12:46:59.356Z,94580.72
2018-11-06T12:49:27.855Z,94574.95
2018-11-06T12:51:56.353Z,94577.59
2018-11-06T12:54:24.900Z,94578.20
2018-11-06T12:56:53.460Z,94581.89
2018-11-06T12:59:21.981Z,94570.70
2018-11-06T13:01:50.497Z,94577.60
2018-11-06T13:04:19.136Z,94577.62
2018-11-06T13:06:47.647Z,94575.55
2018-11-06T13:09:16.136Z,94568.91
2018-11-06T13:11:44.619Z,94571.11
2018-11-06T13:14:13.162Z,94560.20
2018-11-06T13:16:42.829Z,94566.91
2018-11-06T13:19:11.612Z,94561.27
2018-11-06T13:21:40.866Z,94553.98
2018-11-06T13:24:09.573Z,94550.48
2018-11-06T13:26:38.269Z,94556.95
2018-11-06T13:29:07.418Z,94549.02
2018-11-06T13:31:37.289Z,94556.42
2018-11-06T13:34:06.310Z,94555.80
2018-11-06T13:36:35.088Z,94550.77
2018-11-06T13:39:03.925Z,94551.16
2018-11-06T13:41:33.918Z,94553.63
2018-11-06T13:44:05.611Z,94555.08
2018-11-06T13:46:41.868Z,94552.02
2018-11-06T13:49:10.476Z,94552.34
2018-11-06T13:51:39.178Z,94555.23
2018-11-06T13:54:07.707Z,94555.14
2018-11-06T13:56:36.319Z,94551.13
2018-11-06T13:59:04.987Z,94547.60
2018-11-06T14:01:33.520Z,94547.30
2018-11-06T14:04:02.011Z,94540.56
2018-11-06T14:06:37.105Z,94544.67
2018-11-06T14:09:07.764Z,94541.79
2018-11-06T14:11:36.782Z,94550.94
2018-11-06T14:14:05.981Z,94553.09
2018-11-06T14:16:34.706Z,94552.92
2018-11-06T14:19:03.419Z,94564.31
2018-11-06T14:21:31.945Z,94556.52
2018-11-06T14:24:00.455Z,94555.71
2018-11-06T14:26:28.958Z,94545.19
2018-11-06T14:28:57.435Z,94545.86
2018-11-06T14:31:26.219Z,94548.14
2018-11-06T14:33:54.751Z,94552.99
2018-11-06T14:36:23.183Z,94554.11
2018-11-06T14:38:51.665Z,94558.62
2018-11-06T14:41:20.094Z,94554.05
2018-11-06T14:43:48.600Z,94561.39
2018-11-06T14:46:17.041Z,94561.34
2018-11-06T14:48:45.619Z,94567.02
2018-11-06T14:51:14.003Z,94561.99
2018-11-06T14:53:42.468Z,94562.03
2018-11-06T14:56:10.915Z,94562.34
2018-11-06T14:58:39.445Z,94552.52
2018-11-06T15:01:07.912Z,94559.28
2018-11-06T15:03:36.407Z,94557.70
2018-11-06T15:06:05.445Z,94559.13
2018-11-06T15:14:34.784Z,94557.06
2018-11-06T15:17:17.271Z,94556.55
2018-11-06T15:26:07.680Z,94561.12
2018-11-06T15:28:50.364Z,94561.19
2018-11-06T15:34:45.249Z,94567.48
2018-11-06T15:37:29.622Z,94566.17
2018-11-06T15:42:48.505Z,94572.20
2018-11-06T15:48:23.530Z,94573.80
2018-11-06T16:02:39.109Z,94577.52
2018-11-06T16:05:10.581Z,94575.64
2018-11-06T16:08:55.788Z,94572.56
2018-11-06T16:11:40.585Z,94575.11
2018-11-06T16:14:51.824Z,94576.90
2018-11-06T16:29:31.252Z,94589.61
2018-11-06T16:32:05.778Z,94595.73
2018-11-06T16:34:39.020Z,94595.45
2018-11-06T16:37:12.992Z,94598.42
2018-11-06T16:39:45.240Z,94598.97
2018-11-06T16:42:17.625Z,94608.00
2018-11-06T16:50:59.175Z,94600.30
2018-11-06T16:56:40.914Z,94610.54
2018-11-06T16:59:12.669Z,94606.32
2018-11-06T17:01:44.155Z,94605.38
2018-11-06T17:04:27.925Z,94605.39
2018-11-06T17:07:09.008Z,94607.38
2018-11-06T17:09:55.196Z,94607.72
2018-11-06T17:15:14.809Z,94609.33
2018-11-06T17:20:26.480Z,94600.88
2018-11-06T17:22:55.533Z,94610.77
2018-11-06T17:25:37.331Z,94610.95
2018-11-06T17:28:07.415Z,94614.40
2018-11-06T17:30:37.096Z,94614.73
2018-11-06T17:33:06.158Z,94611.63
2018-11-06T17:35:43.168Z,94617.88
2018-11-06T17:38:11.984Z,94616.73
2018-11-06T17:40:50.679Z,94614.97
2018-11-06T23:36:44.447Z,95015.66
2018-11-06T23:39:12.855Z,95016.33
2018-11-06T23:41:41.308Z,95015.58
2018-11-06T23:44:09.716Z,95021.27
2018-11-06T23:46:38.239Z,95022.83
2018-11-06T23:49:06.683Z,95021.75
2018-11-06T23:51:35.122Z,95024.03
2018-11-06T23:54:03.595Z,95029.13
2018-11-06T23:56:32.067Z,95025.43
2018-11-06T23:59:00.518Z,95031.67
